Time;durP1;ratioP1;P1;durP2;ratioP2;P2;SDS_P1;SDS_P2;PMS_P1;PMS_P2;Temp;Humidity;BMP_temperature;BMP_pressure;BME280_temperature;BME280_humidity;BME280_pressure;Samples;Min_cycle;Max_cycle;Signal;HPM_P1;HPM_P2
2024/02/10 00:01:24;;;;;;;;;4.67;4.67;;;;;;;;5051990;28;8998;-85
2024/02/10 00:03:51;;;;;;;;;4.67;3.00;;;;;;;;5052642;28;9195;-84
2024/02/10 00:06:18;;;;;;;;;5.00;5.00;;;;;;;;5052701;28;9009;-85
2024/02/10 00:08:46;;;;;;;;;5.00;5.00;;;;;;;;5052433;28;9101;-85
2024/02/10 00:11:14;;;;;;;;;5.00;5.00;;;;;;;;5052498;28;9102;-86
2024/02/10 00:13:42;;;;;;;;;8.00;8.00;;;;;;;;5051718;28;9064;-84
2024/02/10 00:16:13;;;;;;;;;10.00;8.67;;;;;;;;5052355;28;9092;-85
2024/02/10 00:18:41;;;;;;;;;5.33;5.33;;;;;;;;5052248;28;9194;-85
2024/02/10 00:21:09;;;;;;;;;5.00;5.00;;;;;;;;5051832;28;9187;-84
2024/02/10 00:23:37;;;;;;;;;4.67;3.00;;;;;;;;5057269;28;9091;-84
2024/02/10 00:26:05;;;;;;;;;5.00;5.00;;;;;;;;5056118;28;9114;-84
2024/02/10 00:28:35;;;;;;;;;11.67;8.67;;;;;;;;5051884;28;8967;-84
2024/02/10 00:31:03;;;;;;;;;6.67;6.67;;;;;;;;5051458;28;8907;-84
2024/02/10 00:33:31;;;;;;;;;4.75;4.50;;;;;;;;5052123;28;9048;-84
2024/02/10 00:36:01;;;;;;;;;5.33;5.33;;;;;;;;5053343;28;8845;-84
2024/02/10 00:38:32;;;;;;;;;3.00;3.00;;;;;;;;5056358;28;9757;-85
2024/02/10 00:41:03;;;;;;;;;4.00;4.00;;;;;;;;5057601;28;8850;-85
2024/02/10 00:43:37;;;;;;;;;6.00;6.00;;;;;;;;5058999;28;9118;-84
2024/02/10 00:46:07;;;;;;;;;8.33;6.00;;;;;;;;5057638;28;9081;-85
2024/02/10 00:48:37;;;;;;;;;6.00;6.00;;;;;;;;5056958;28;9103;-84
2024/02/10 00:51:05;;;;;;;;;7.00;6.00;;;;;;;;5058711;28;9092;-83
2024/02/10 00:53:39;;;;;;;;;4.00;4.00;;;;;;;;5059534;28;9107;-84
2024/02/10 00:56:08;;;;;;;;;4.00;4.00;;;;;;;;5066424;28;9154;-83
2024/02/10 00:58:41;;;;;;;;;9.00;8.00;;;;;;;;5068186;28;9340;-85
2024/02/10 01:01:12;;;;;;;;;8.00;8.00;;;;;;;;5054856;28;9276;-85
2024/02/10 01:03:45;;;;;;;;;6.00;6.00;;;;;;;;5056753;28;9244;-85
2024/02/10 01:06:15;;;;;;;;;6.33;5.33;;;;;;;;5054976;28;9116;-85
2024/02/10 01:08:46;;;;;;;;;11.67;7.67;;;;;;;;5051529;28;9294;-86
2024/02/10 01:11:13;;;;;;;;;8.33;7.00;;;;;;;;5050878;28;9289;-84
2024/02/10 01:13:42;;;;;;;;;9.00;7.00;;;;;;;;5050582;28;9947;-85
2024/02/10 01:16:15;;;;;;;;;10.00;10.00;;;;;;;;5050805;28;9025;-87
2024/02/10 01:18:44;;;;;;;;;9.67;8.33;;;;;;;;5051353;28;9329;-87
2024/02/10 01:21:12;;;;;;;;;5.67;5.67;;;;;;;;5050966;28;9117;-85
2024/02/10 01:23:42;;;;;;;;;7.67;7.67;;;;;;;;5050052;28;9030;-85
2024/02/10 01:26:12;;;;;;;;;9.00;9.00;;;;;;;;5052660;28;9194;-84
2024/02/10 01:28:39;;;;;;;;;7.67;7.67;;;;;;;;5054056;28;9183;-84
2024/02/10 01:31:07;;;;;;;;;7.33;7.00;;;;;;;;5052445;28;9035;-84
2024/02/10 01:33:34;;;;;;;;;4.33;4.33;;;;;;;;5051139;28;9325;-85
2024/02/10 01:36:04;;;;;;;;;3.00;3.00;;;;;;;;5050670;28;9191;-85
2024/02/10 01:38:37;;;;;;;;;4.00;4.00;;;;;;;;5051105;28;9044;-85
2024/02/10 01:41:04;;;;;;;;;3.00;3.00;;;;;;;;5050183;28;9022;-85
2024/02/10 01:43:38;;;;;;;;;5.00;5.00;;;;;;;;5050863;28;9115;-85
2024/02/10 01:46:07;;;;;;;;;5.00;5.00;;;;;;;;5049917;28;9085;-84
2024/02/10 01:48:35;;;;;;;;;6.67;5.00;;;;;;;;5050034;28;9091;-84
2024/02/10 01:51:04;;;;;;;;;6.33;4.67;;;;;;;;5049936;28;9109;-84
2024/02/10 01:53:32;;;;;;;;;4.00;4.00;;;;;;;;5050103;28;9087;-85
2024/02/10 01:56:01;;;;;;;;;4.67;4.67;;;;;;;;5049189;28;9171;-84
2024/02/10 01:58:35;;;;;;;;;5.67;3.67;;;;;;;;5049713;28;9102;-84
2024/02/10 02:01:03;;;;;;;;;4.00;4.00;;;;;;;;5049747;28;9114;-83
2024/02/10 02:03:32;;;;;;;;;3.00;3.00;;;;;;;;5051064;28;9113;-84
2024/02/10 02:06:00;;;;;;;;;3.33;1.67;;;;;;;;5050968;28;9189;-86
2024/02/10 02:08:33;;;;;;;;;3.00;3.00;;;;;;;;5050615;28;9267;-85
2024/02/10 02:11:01;;;;;;;;;4.00;4.00;;;;;;;;5049963;28;8988;-85
2024/02/10 02:13:30;;;;;;;;;3.00;3.00;;;;;;;;5050447;28;9205;-85
2024/02/10 02:15:58;;;;;;;;;2.00;2.00;;;;;;;;5049934;28;8972;-84
2024/02/10 02:18:26;;;;;;;;;3.67;3.67;;;;;;;;5050669;28;9045;-84
2024/02/10 02:20:55;;;;;;;;;3.00;3.00;;;;;;;;5049919;28;9021;-85
2024/02/10 02:23:23;;;;;;;;;5.00;5.00;;;;;;;;5048579;28;9409;-85
2024/02/10 02:25:51;;;;;;;;;4.67;3.00;;;;;;;;5050214;28;9094;-84
2024/02/10 02:28:18;;;;;;;;;4.33;4.33;;;;;;;;5052039;28;9091;-85
2024/02/10 02:30:46;;;;;;;;;4.00;4.00;;;;;;;;5052053;28;8944;-85
2024/02/10 02:33:13;;;;;;;;;3.67;3.67;;;;;;;;5055162;28;9101;-85
2024/02/10 02:35:43;;;;;;;;;3.33;3.33;;;;;;;;5056155;28;9022;-85
2024/02/10 02:38:13;;;;;;;;;4.00;4.00;;;;;;;;5055341;28;9215;-85
2024/02/10 02:40:42;;;;;;;;;4.00;4.00;;;;;;;;5053636;28;9098;-86
2024/02/10 02:43:14;;;;;;;;;5.33;4.00;;;;;;;;5053724;28;9041;-86
2024/02/10 02:45:44;;;;;;;;;4.00;4.00;;;;;;;;5051975;28;9091;-85
2024/02/10 02:48:16;;;;;;;;;3.67;3.00;;;;;;;;5049888;28;8950;-84
2024/02/10 02:50:46;;;;;;;;;4.67;3.33;;;;;;;;5052201;28;9811;-84
2024/02/10 02:53:14;;;;;;;;;4.00;4.00;;;;;;;;5053948;28;9132;-85
2024/02/10 02:55:45;;;;;;;;;4.00;4.00;;;;;;;;5053470;28;9083;-84
2024/02/10 02:58:12;;;;;;;;;2.00;2.00;;;;;;;;5050398;28;9818;-84
2024/02/10 03:00:42;;;;;;;;;4.67;3.67;;;;;;;;5048757;28;8909;-84
2024/02/10 03:03:11;;;;;;;;;4.00;4.00;;;;;;;;5048834;28;9138;-84
2024/02/10 03:05:40;;;;;;;;;3.00;3.00;;;;;;;;5049361;28;9051;-85
2024/02/10 03:08:08;;;;;;;;;3.00;3.00;;;;;;;;5049181;28;8961;-84
2024/02/10 03:10:35;;;;;;;;;8.33;3.00;;;;;;;;5049184;28;9017;-83
2024/02/10 03:13:08;;;;;;;;;4.00;4.00;;;;;;;;5049447;28;8925;-84
2024/02/10 03:15:37;;;;;;;;;4.67;3.33;;;;;;;;5050710;28;9017;-84
2024/02/10 03:18:05;;;;;;;;;4.33;4.33;;;;;;;;5051876;28;9009;-84
2024/02/10 03:20:35;;;;;;;;;6.00;4.00;;;;;;;;5051849;28;9220;-84
2024/02/10 03:23:02;;;;;;;;;4.00;4.00;;;;;;;;5048354;28;9057;-84
2024/02/10 03:25:30;;;;;;;;;7.00;4.00;;;;;;;;5050904;28;9110;-84
2024/02/10 03:27:57;;;;;;;;;5.00;5.00;;;;;;;;5066012;28;9304;-84
2024/02/10 03:30:26;;;;;;;;;4.33;2.67;;;;;;;;5063189;28;9128;-85
2024/02/10 03:32:54;;;;;;;;;2.00;2.00;;;;;;;;5049966;28;9242;-83
2024/02/10 03:35:24;;;;;;;;;3.67;3.67;;;;;;;;5048783;28;9095;-85
2024/02/10 03:37:51;;;;;;;;;4.67;3.67;;;;;;;;5049178;28;9079;-84
2024/02/10 03:40:21;;;;;;;;;5.33;5.33;;;;;;;;5048809;28;9213;-84
2024/02/10 03:42:49;;;;;;;;;5.67;5.67;;;;;;;;5049157;28;9217;-83
2024/02/10 03:45:18;;;;;;;;;4.67;4.67;;;;;;;;5047777;28;9266;-84
2024/02/10 03:47:50;;;;;;;;;5.67;5.67;;;;;;;;5047582;28;9186;-83
2024/02/10 03:50:23;;;;;;;;;7.00;7.00;;;;;;;;5048741;28;9344;-84
2024/02/10 03:52:50;;;;;;;;;5.33;5.33;;;;;;;;5049043;28;9332;-83
2024/02/10 03:55:18;;;;;;;;;5.00;4.00;;;;;;;;5048040;28;9340;-84
2024/02/10 03:57:45;;;;;;;;;5.00;5.00;;;;;;;;5050254;28;9391;-83
2024/02/10 04:00:20;;;;;;;;;4.00;4.00;;;;;;;;5040383;28;9518;-84
2024/02/10 04:02:48;;;;;;;;;8.00;6.00;;;;;;;;5049117;28;9320;-84
2024/02/10 04:05:16;;;;;;;;;5.00;5.00;;;;;;;;5048615;28;10178;-85
2024/02/10 04:07:49;;;;;;;;;3.00;3.00;;;;;;;;5048540;28;10202;-83
2024/02/10 04:10:17;;;;;;;;;5.00;5.00;;;;;;;;5049166;28;9258;-84
2024/02/10 04:12:44;;;;;;;;;5.00;5.00;;;;;;;;5052068;28;10145;-84
2024/02/10 04:15:12;;;;;;;;;3.00;3.00;;;;;;;;5052739;28;9418;-84
2024/02/10 04:17:39;;;;;;;;;5.00;3.00;;;;;;;;5053797;28;9455;-85
2024/02/10 04:20:11;;;;;;;;;4.00;4.00;;;;;;;;5054856;28;9382;-84
2024/02/10 04:22:45;;;;;;;;;5.00;5.00;;;;;;;;5055534;28;9356;-84
2024/02/10 04:25:14;;;;;;;;;4.00;4.00;;;;;;;;5055892;28;9406;-84
2024/02/10 04:27:42;;;;;;;;;4.00;4.00;;;;;;;;5055318;28;9420;-84
2024/02/10 04:30:10;;;;;;;;;5.00;5.00;;;;;;;;5056107;28;9350;-85
2024/02/10 04:32:46;;;;;;;;;4.00;4.00;;;;;;;;5055512;28;9436;-85
2024/02/10 04:35:15;;;;;;;;;4.00;4.00;;;;;;;;5055678;28;9407;-84
2024/02/10 04:37:51;;;;;;;;;4.00;4.00;;;;;;;;5053323;28;9559;-83
2024/02/10 04:40:18;;;;;;;;;4.25;4.25;;;;;;;;5051639;28;9427;-84
2024/02/10 04:42:45;;;;;;;;;4.25;4.25;;;;;;;;5051989;28;9405;-82
2024/02/10 04:45:25;;;;;;;;;5.50;4.00;;;;;;;;5050494;28;9476;-84
2024/02/10 04:47:53;;;;;;;;;4.00;4.00;;;;;;;;5050609;28;9581;-83
2024/02/10 04:50:22;;;;;;;;;3.50;3.50;;;;;;;;5050438;28;9561;-84
2024/02/10 04:52:49;;;;;;;;;5.00;5.00;;;;;;;;5050858;28;9509;-83
2024/02/10 04:55:18;;;;;;;;;5.50;4.75;;;;;;;;5050410;28;9486;-83
2024/02/10 04:57:46;;;;;;;;;3.00;3.00;;;;;;;;5050791;28;9468;-84
2024/02/10 05:00:15;;;;;;;;;4.25;4.25;;;;;;;;5050036;28;9461;-84
2024/02/10 05:02:44;;;;;;;;;4.00;4.00;;;;;;;;5050919;28;9564;-84
2024/02/10 05:05:11;;;;;;;;;4.25;4.25;;;;;;;;5050675;28;9410;-84
2024/02/10 05:07:45;;;;;;;;;2.00;0.67;;;;;;;;5052670;28;9577;-84
2024/02/10 05:10:14;;;;;;;;;4.33;4.33;;;;;;;;5041904;28;9397;-85
2024/02/10 05:12:44;;;;;;;;;5.75;5.75;;;;;;;;5052369;28;9408;-85
2024/02/10 05:15:15;;;;;;;;;8.25;6.75;;;;;;;;5051640;28;9403;-85
2024/02/10 05:17:42;;;;;;;;;6.00;6.00;;;;;;;;5052403;28;9488;-84
2024/02/10 05:20:17;;;;;;;;;6.50;6.50;;;;;;;;5050352;28;9579;-84
2024/02/10 05:22:46;;;;;;;;;8.00;6.75;;;;;;;;5050130;28;9647;-85
2024/02/10 05:25:14;;;;;;;;;6.00;6.00;;;;;;;;5050343;28;9461;-85
2024/02/10 05:27:44;;;;;;;;;6.75;5.00;;;;;;;;5049975;28;10377;-84
2024/02/10 05:30:14;;;;;;;;;4.00;4.00;;;;;;;;5048195;28;9693;-85
2024/02/10 05:32:44;;;;;;;;;5.00;3.67;;;;;;;;5048763;28;10166;-85
2024/02/10 05:35:18;;;;;;;;;3.00;3.00;;;;;;;;5050172;28;9479;-86
2024/02/10 05:37:47;;;;;;;;;3.75;3.75;;;;;;;;5050232;28;9493;-84
2024/02/10 05:40:15;;;;;;;;;5.00;3.25;;;;;;;;5049627;28;9547;-84
2024/02/10 05:42:45;;;;;;;;;2.00;2.00;;;;;;;;5050023;28;9778;-84
2024/02/10 05:45:14;;;;;;;;;5.00;4.00;;;;;;;;5049639;28;9339;-84
2024/02/10 05:47:41;;;;;;;;;5.50;4.00;;;;;;;;5050314;28;9391;-84
2024/02/10 05:50:15;;;;;;;;;4.25;4.25;;;;;;;;5049442;28;9500;-85
2024/02/10 05:52:44;;;;;;;;;5.00;5.00;;;;;;;;5050494;28;9594;-86
2024/02/10 05:55:13;;;;;;;;;5.67;5.67;;;;;;;;5050286;28;9470;-85
2024/02/10 05:57:41;;;;;;;;;11.75;9.25;;;;;;;;5051654;28;9486;-85
2024/02/10 06:00:10;;;;;;;;;8.50;8.00;;;;;;;;5060773;28;9551;-84
2024/02/10 06:02:42;;;;;;;;;7.50;7.00;;;;;;;;5069176;28;9550;-84
2024/02/10 06:05:11;;;;;;;;;7.00;5.33;;;;;;;;5053608;28;9649;-85
2024/02/10 06:07:38;;;;;;;;;6.00;6.00;;;;;;;;5054184;28;9541;-85
2024/02/10 06:10:12;;;;;;;;;4.33;4.33;;;;;;;;5056865;28;9556;-84
2024/02/10 06:12:45;;;;;;;;;8.33;5.67;;;;;;;;5057768;28;9397;-86
2024/02/10 06:15:13;;;;;;;;;5.00;5.00;;;;;;;;5048677;28;9443;-85
2024/02/10 06:17:42;;;;;;;;;4.00;4.00;;;;;;;;5058184;28;9325;-86
2024/02/10 06:20:14;;;;;;;;;3.00;3.00;;;;;;;;5058156;28;9439;-86
2024/02/10 06:22:42;;;;;;;;;6.00;6.00;;;;;;;;5054788;28;9407;-83
2024/02/10 06:25:11;;;;;;;;;11.00;7.00;;;;;;;;5051752;28;9508;-83
2024/02/10 06:27:41;;;;;;;;;7.50;6.75;;;;;;;;5049470;28;9434;-84
2024/02/10 06:30:11;;;;;;;;;15.50;14.00;;;;;;;;5048054;28;10430;-84
2024/02/10 06:32:39;;;;;;;;;12.00;12.00;;;;;;;;5048760;28;9708;-83
2024/02/10 06:35:08;;;;;;;;;6.50;6.50;;;;;;;;5048794;28;10354;-83
2024/02/10 06:37:37;;;;;;;;;17.00;17.00;;;;;;;;5036786;28;9617;-83
2024/02/10 06:40:05;;;;;;;;;14.50;14.50;;;;;;;;5048285;28;9713;-83
2024/02/10 06:42:35;;;;;;;;;14.00;14.00;;;;;;;;5048897;28;9709;-83
2024/02/10 06:45:07;;;;;;;;;11.25;11.25;;;;;;;;5048518;28;9725;-84
2024/02/10 06:47:35;;;;;;;;;11.75;9.75;;;;;;;;5048899;28;9552;-84
2024/02/10 06:50:11;;;;;;;;;14.50;13.50;;;;;;;;5048737;28;10241;-84
2024/02/10 06:52:38;;;;;;;;;14.00;12.25;;;;;;;;5050660;28;9640;-84
2024/02/10 06:55:26;;;;;;;;;14.00;14.00;;;;;;;;5050378;28;9613;-83
2024/02/10 06:57:55;;;;;;;;;10.25;10.25;;;;;;;;5050562;28;9670;-83
2024/02/10 07:00:24;;;;;;;;;11.75;11.75;;;;;;;;5041166;28;9493;-84
2024/02/10 07:02:56;;;;;;;;;14.00;13.50;;;;;;;;5061246;28;9591;-84
2024/02/10 07:05:24;;;;;;;;;8.75;8.75;;;;;;;;5048746;28;9495;-75
2024/02/10 07:07:52;;;;;;;;;12.00;11.75;;;;;;;;5047054;28;10588;-77
2024/02/10 07:10:25;;;;;;;;;10.00;10.00;;;;;;;;5055246;28;9717;-75
2024/02/10 07:12:54;;;;;;;;;11.00;11.00;;;;;;;;5047927;28;9637;-73
2024/02/10 07:15:26;;;;;;;;;13.50;12.00;;;;;;;;5048224;28;10007;-73
2024/02/10 07:18:08;;;;;;;;;14.00;12.50;;;;;;;;5049072;28;9546;-74
2024/02/10 07:20:35;;;;;;;;;12.50;12.50;;;;;;;;5050297;28;9706;-74
2024/02/10 07:23:04;;;;;;;;;13.25;13.25;;;;;;;;5050378;28;9687;-76
2024/02/10 07:25:35;;;;;;;;;7.75;7.75;;;;;;;;5048201;28;9871;-76
2024/02/10 07:28:10;;;;;;;;;8.50;8.50;;;;;;;;5048435;28;10302;-75
2024/02/10 07:30:51;;;;;;;;;9.00;7.75;;;;;;;;5047327;28;9482;-74
2024/02/10 07:33:21;;;;;;;;;12.50;12.25;;;;;;;;5048895;28;9756;-77
2024/02/10 07:51:59;;;;;;;;;;;;;;;;;;;;;
2024/02/10 07:58:26;;;;;;;;;11.25;11.25;;;;;;;;4788959;29;9859;-82
2024/02/10 08:00:53;;;;;;;;;14.00;14.00;;;;;;;;4799314;29;9790;-73
2024/02/10 08:03:23;;;;;;;;;8.00;8.00;;;;;;;;4951801;28;9724;-73
2024/02/10 08:05:51;;;;;;;;;10.75;10.75;;;;;;;;5011451;28;9808;-78
2024/02/10 08:08:23;;;;;;;;;8.25;6.50;;;;;;;;5009845;28;9844;-72
2024/02/10 08:10:51;;;;;;;;;5.75;5.75;;;;;;;;5009587;28;9520;-73
2024/02/10 08:13:24;;;;;;;;;8.25;7.75;;;;;;;;5010656;28;9779;-73
2024/02/10 08:15:54;;;;;;;;;7.50;7.50;;;;;;;;5009052;28;9380;-73
2024/02/10 08:18:21;;;;;;;;;5.75;5.75;;;;;;;;5001252;28;9607;-75
2024/02/10 08:20:49;;;;;;;;;9.00;7.75;;;;;;;;5013192;28;9465;-75
2024/02/10 08:23:16;;;;;;;;;23.75;23.25;;;;;;;;5009433;28;10293;-73
2024/02/10 08:25:44;;;;;;;;;26.75;26.75;;;;;;;;5008965;28;10022;-75
2024/02/10 08:28:11;;;;;;;;;27.25;25.00;;;;;;;;5030113;28;10185;-72
2024/02/10 08:30:41;;;;;;;;;13.75;12.25;;;;;;;;5050466;28;10723;-74
2024/02/10 08:33:12;;;;;;;;;12.75;12.75;;;;;;;;5053614;28;9881;-73
2024/02/10 08:35:40;;;;;;;;;18.00;18.00;;;;;;;;5053514;28;9762;-73
2024/02/10 08:38:09;;;;;;;;;25.75;25.75;;;;;;;;5053310;28;10253;-74
2024/02/10 08:40:39;;;;;;;;;27.50;25.50;;;;;;;;5051053;28;10363;-73
2024/02/10 08:43:09;;;;;;;;;30.75;30.75;;;;;;;;5050821;28;10457;-74
2024/02/10 08:45:38;;;;;;;;;23.50;23.00;;;;;;;;5050447;28;10382;-73
2024/02/10 08:48:08;;;;;;;;;24.25;21.50;;;;;;;;5050227;28;10176;-74
2024/02/10 08:50:41;;;;;;;;;14.25;12.00;;;;;;;;5050731;28;10082;-72
2024/02/10 08:53:09;;;;;;;;;9.00;9.00;;;;;;;;5049854;28;9721;-72
2024/02/10 08:55:38;;;;;;;;;10.75;9.00;;;;;;;;5050491;28;10575;-72
2024/02/10 08:58:05;;;;;;;;;8.25;8.25;;;;;;;;5048953;28;9517;-72
2024/02/10 09:00:45;;;;;;;;;10.25;10.25;;;;;;;;5047992;28;9398;-74
2024/02/10 09:03:13;;;;;;;;;14.00;13.50;;;;;;;;5051568;28;9614;-72
2024/02/10 09:05:42;;;;;;;;;14.25;11.00;;;;;;;;5050815;28;10493;-76
2024/02/10 09:08:09;;;;;;;;;8.50;7.00;;;;;;;;5050129;28;9857;-78
2024/02/10 09:10:39;;;;;;;;;12.00;12.00;;;;;;;;5050184;28;9548;-80
2024/02/10 09:13:06;;;;;;;;;7.33;7.33;;;;;;;;5049784;28;9466;-78
2024/02/10 09:15:33;;;;;;;;;11.33;9.00;;;;;;;;5049805;28;9336;-75
2024/02/10 09:18:01;;;;;;;;;9.00;9.00;;;;;;;;5049691;28;9345;-74
2024/02/10 09:20:32;;;;;;;;;11.00;11.00;;;;;;;;5050292;28;9445;-76
2024/02/10 09:23:02;;;;;;;;;10.33;8.33;;;;;;;;5050233;28;9302;-75
2024/02/10 09:25:30;;;;;;;;;12.33;12.00;;;;;;;;5049748;28;10153;-77
2024/02/10 09:27:59;;;;;;;;;8.00;8.00;;;;;;;;5049904;28;9412;-77
2024/02/10 09:30:29;;;;;;;;;17.00;10.00;;;;;;;;5049181;28;9222;-74
2024/02/10 09:32:56;;;;;;;;;10.00;8.33;;;;;;;;5050158;28;10179;-77
2024/02/10 09:35:24;;;;;;;;;7.00;7.00;;;;;;;;5050110;28;9355;-82
2024/02/10 09:37:51;;;;;;;;;7.00;7.00;;;;;;;;5051261;28;9181;-76
2024/02/10 09:40:21;;;;;;;;;8.00;8.00;;;;;;;;5052798;28;9330;-81
2024/02/10 09:42:53;;;;;;;;;8.00;8.00;;;;;;;;5061435;28;9242;-77
2024/02/10 09:45:23;;;;;;;;;7.00;7.00;;;;;;;;5051744;28;9631;-80
2024/02/10 09:47:51;;;;;;;;;13.67;11.33;;;;;;;;5052366;28;9192;-76
2024/02/10 09:50:18;;;;;;;;;20.75;19.25;;;;;;;;5051229;28;9221;-78
2024/02/10 09:52:47;;;;;;;;;18.00;18.00;;;;;;;;5051783;28;9659;-75
2024/02/10 09:55:15;;;;;;;;;7.67;6.33;;;;;;;;5049083;28;9622;-75
2024/02/10 09:57:47;;;;;;;;;9.67;8.00;;;;;;;;5049484;28;9262;-77
2024/02/10 10:00:15;;;;;;;;;6.25;6.25;;;;;;;;5048370;28;9101;-74
2024/02/10 10:02:49;;;;;;;;;8.67;8.67;;;;;;;;5048664;28;9003;-73
2024/02/10 10:05:19;;;;;;;;;10.00;10.00;;;;;;;;5037540;28;9013;-83
2024/02/10 10:07:52;;;;;;;;;9.75;9.75;;;;;;;;5048536;28;9033;-76
2024/02/10 10:10:20;;;;;;;;;6.00;6.00;;;;;;;;5048722;28;8845;-75
2024/02/10 10:12:49;;;;;;;;;6.50;6.50;;;;;;;;5049062;28;9506;-76
2024/02/10 10:15:16;;;;;;;;;6.75;6.75;;;;;;;;5048638;28;8846;-75
2024/02/10 10:17:43;;;;;;;;;7.00;7.00;;;;;;;;5047999;28;8885;-80
2024/02/10 10:20:11;;;;;;;;;6.75;5.75;;;;;;;;5048975;28;8972;-76
2024/02/10 10:22:38;;;;;;;;;9.00;9.00;;;;;;;;5049609;28;8964;-77
2024/02/10 10:25:06;;;;;;;;;5.25;5.25;;;;;;;;5051260;28;8845;-76
2024/02/10 10:27:35;;;;;;;;;6.75;6.00;;;;;;;;5050651;28;9775;-78
2024/02/10 10:30:06;;;;;;;;;9.25;7.75;;;;;;;;5049018;28;8869;-76
2024/02/10 10:32:36;;;;;;;;;8.00;8.00;;;;;;;;5048938;28;8829;-80
2024/02/10 10:35:04;;;;;;;;;9.00;8.50;;;;;;;;5048420;28;8869;-74
2024/02/10 10:37:32;;;;;;;;;7.75;5.50;;;;;;;;5048738;28;9643;-75
2024/02/10 10:39:59;;;;;;;;;6.25;6.25;;;;;;;;5049918;28;8976;-75
2024/02/10 10:42:27;;;;;;;;;8.00;8.00;;;;;;;;5050033;28;9772;-76
2024/02/10 10:44:57;;;;;;;;;8.00;8.00;;;;;;;;5049997;28;8911;-77
2024/02/10 10:47:26;;;;;;;;;8.50;8.50;;;;;;;;5047840;28;9135;-75
2024/02/10 10:49:54;;;;;;;;;9.00;8.00;;;;;;;;5048025;28;8853;-77
2024/02/10 10:52:27;;;;;;;;;11.75;10.25;;;;;;;;5048564;28;8873;-76
2024/02/10 10:54:58;;;;;;;;;8.00;8.00;;;;;;;;5048329;28;8905;-77
2024/02/10 10:57:26;;;;;;;;;11.25;11.25;;;;;;;;5048532;28;8857;-77
2024/02/10 10:59:59;;;;;;;;;8.00;8.00;;;;;;;;5048639;28;8911;-80
2024/02/10 11:02:28;;;;;;;;;7.50;6.50;;;;;;;;5047572;28;8807;-78
2024/02/10 11:05:09;;;;;;;;;5.75;5.75;;;;;;;;5048270;28;8837;-77
2024/02/10 11:07:36;;;;;;;;;7.00;7.00;;;;;;;;5052593;28;8868;-74
2024/02/10 11:10:04;;;;;;;;;9.00;7.00;;;;;;;;5053424;28;8863;-78
2024/02/10 11:13:00;;;;;;;;;8.50;8.50;;;;;;;;5049319;28;8861;-78
2024/02/10 11:15:27;;;;;;;;;11.75;8.50;;;;;;;;5049400;28;8876;-73
2024/02/10 11:18:00;;;;;;;;;7.50;7.50;;;;;;;;5049194;28;8947;-81
2024/02/10 11:20:34;;;;;;;;;11.75;11.75;;;;;;;;5047986;28;8861;-76
2024/02/10 11:23:13;;;;;;;;;10.50;10.50;;;;;;;;5051031;28;8915;-74
2024/02/10 11:25:42;;;;;;;;;5.25;5.25;;;;;;;;5052631;28;8834;-78
2024/02/10 11:28:20;;;;;;;;;5.00;5.00;;;;;;;;5053642;28;8919;-76
2024/02/10 11:30:48;;;;;;;;;5.50;5.50;;;;;;;;5052626;28;8802;-79
2024/02/10 11:33:22;;;;;;;;;5.00;5.00;;;;;;;;5051910;28;8837;-81
2024/02/10 11:35:50;;;;;;;;;7.75;7.75;;;;;;;;5052002;28;8879;-77
2024/02/10 11:38:18;;;;;;;;;12.75;11.00;;;;;;;;5051079;28;8875;-75
2024/02/10 11:40:45;;;;;;;;;15.75;13.75;;;;;;;;5042829;28;9632;-75
2024/02/10 11:43:14;;;;;;;;;6.25;6.25;;;;;;;;5047582;28;8879;-75
2024/02/10 11:45:42;;;;;;;;;9.00;9.00;;;;;;;;5048203;28;8868;-75
2024/02/10 11:48:09;;;;;;;;;10.25;10.25;;;;;;;;5047550;28;8883;-83
2024/02/10 11:50:43;;;;;;;;;7.75;7.75;;;;;;;;5047885;28;8846;-75
2024/02/10 11:53:12;;;;;;;;;12.00;10.25;;;;;;;;5046904;28;8853;-75
2024/02/10 11:55:41;;;;;;;;;10.75;7.25;;;;;;;;5047709;28;8865;-77
2024/02/10 11:58:11;;;;;;;;;8.00;8.00;;;;;;;;5046979;28;9242;-74
2024/02/10 12:00:38;;;;;;;;;8.00;8.00;;;;;;;;5046852;28;8778;-75
2024/02/10 12:03:06;;;;;;;;;7.75;7.75;;;;;;;;5046980;28;8861;-75
2024/02/10 12:05:35;;;;;;;;;10.50;10.50;;;;;;;;5047114;28;8865;-75
2024/02/10 12:08:07;;;;;;;;;12.50;10.25;;;;;;;;5046911;28;9422;-77
2024/02/10 12:10:37;;;;;;;;;13.50;11.50;;;;;;;;5046991;28;8973;-75
2024/02/10 12:13:05;;;;;;;;;10.50;10.50;;;;;;;;5047381;28;8880;-75
2024/02/10 12:15:33;;;;;;;;;17.25;14.25;;;;;;;;5047226;28;8885;-75
2024/02/10 12:18:01;;;;;;;;;18.50;13.75;;;;;;;;5038264;28;8869;-76
2024/02/10 12:20:29;;;;;;;;;22.25;22.25;;;;;;;;5047063;28;8861;-74
2024/02/10 12:23:01;;;;;;;;;21.00;19.50;;;;;;;;5047851;28;8857;-74
2024/02/10 12:25:29;;;;;;;;;18.50;16.75;;;;;;;;5047120;28;8849;-75
2024/02/10 12:27:58;;;;;;;;;14.25;14.25;;;;;;;;5047227;28;8903;-75
2024/02/10 12:30:26;;;;;;;;;16.25;16.25;;;;;;;;5046039;28;8765;-75
2024/02/10 12:32:53;;;;;;;;;17.25;14.50;;;;;;;;5048598;28;8887;-76
2024/02/10 12:35:20;;;;;;;;;16.67;16.67;;;;;;;;5052596;28;8890;-79
2024/02/10 12:37:48;;;;;;;;;10.00;9.75;;;;;;;;5052756;28;9721;-78
2024/02/10 12:40:18;;;;;;;;;13.00;11.00;;;;;;;;5051743;28;8962;-76
2024/02/10 12:42:47;;;;;;;;;11.00;11.00;;;;;;;;5051576;28;8901;-80
2024/02/10 12:45:17;;;;;;;;;17.25;13.50;;;;;;;;5050584;28;8996;-83
2024/02/10 12:47:45;;;;;;;;;11.25;10.75;;;;;;;;5051413;28;8862;-78
2024/02/10 12:50:13;;;;;;;;;12.00;10.50;;;;;;;;5050533;28;8885;-75
2024/02/10 12:52:45;;;;;;;;;14.25;14.25;;;;;;;;5051369;28;8872;-81
2024/02/10 12:55:14;;;;;;;;;11.00;11.00;;;;;;;;5051552;28;8850;-83
2024/02/10 12:57:41;;;;;;;;;7.25;7.25;;;;;;;;5052034;28;8857;-81
2024/02/10 13:00:22;;;;;;;;;16.25;13.50;;;;;;;;5051345;28;8854;-80
2024/02/10 13:02:50;;;;;;;;;12.00;9.75;;;;;;;;5051572;28;9666;-86
2024/02/10 13:05:20;;;;;;;;;12.25;12.00;;;;;;;;5050953;28;8883;-81
2024/02/10 13:07:47;;;;;;;;;15.00;11.75;;;;;;;;5051691;28;8874;-79
2024/02/10 13:10:21;;;;;;;;;12.50;11.00;;;;;;;;5042099;28;8879;-78
2024/02/10 13:12:50;;;;;;;;;10.00;10.00;;;;;;;;5052589;28;8845;-82
2024/02/10 13:15:18;;;;;;;;;15.25;13.75;;;;;;;;5053386;28;8938;-74
2024/02/10 13:17:46;;;;;;;;;6.50;5.50;;;;;;;;5053253;28;8883;-85
2024/02/10 13:20:17;;;;;;;;;7.75;7.75;;;;;;;;5054045;28;8849;-80
2024/02/10 13:22:45;;;;;;;;;13.00;11.25;;;;;;;;5053185;28;8884;-83
2024/02/10 13:25:15;;;;;;;;;13.75;12.00;;;;;;;;5052677;28;9732;-80
2024/02/10 13:27:44;;;;;;;;;8.50;8.25;;;;;;;;5049868;28;8883;-76
2024/02/10 13:30:17;;;;;;;;;8.25;8.25;;;;;;;;5049558;28;8975;-74
2024/02/10 13:32:46;;;;;;;;;7.25;7.25;;;;;;;;5039510;28;9666;-75
2024/02/10 13:35:19;;;;;;;;;8.00;8.00;;;;;;;;5053305;28;8956;-77
2024/02/10 14:05:04;;;;;;;;;8.75;8.50;;;;;;;;5050433;28;8830;-80
2024/02/10 14:10:23;;;;;;;;;8.25;7.75;;;;;;;;5039692;28;8838;-81
2024/02/10 14:12:53;;;;;;;;;7.25;7.25;;;;;;;;5048953;28;8837;-81
2024/02/10 14:15:24;;;;;;;;;8.50;5.00;;;;;;;;5049260;28;8899;-85
2024/02/10 14:17:57;;;;;;;;;6.00;6.00;;;;;;;;5049014;28;9006;-79
2024/02/10 14:20:27;;;;;;;;;3.50;3.50;;;;;;;;5049507;28;8849;-79
2024/02/10 14:22:56;;;;;;;;;5.75;5.75;;;;;;;;5048939;28;8960;-78
2024/02/10 14:25:27;;;;;;;;;7.50;6.75;;;;;;;;5048599;28;8861;-85
2024/02/10 14:27:59;;;;;;;;;6.25;6.25;;;;;;;;5049372;28;8847;-83
2024/02/10 14:30:38;;;;;;;;;6.00;6.00;;;;;;;;5048257;28;8730;-74
2024/02/10 14:33:09;;;;;;;;;7.25;5.50;;;;;;;;5048807;28;8942;-82
2024/02/10 14:35:52;;;;;;;;;7.25;6.00;;;;;;;;5048498;28;8869;-75
2024/02/10 14:38:30;;;;;;;;;8.25;8.25;;;;;;;;5049717;28;8857;-78
2024/02/10 14:41:02;;;;;;;;;7.25;7.25;;;;;;;;5050424;28;8853;-81
2024/02/10 14:43:29;;;;;;;;;7.50;7.00;;;;;;;;5049419;28;8869;-85
2024/02/10 14:45:58;;;;;;;;;5.25;5.25;;;;;;;;5039806;28;9667;-88
2024/02/10 14:48:28;;;;;;;;;5.00;5.00;;;;;;;;5048483;28;8857;-87
2024/02/10 14:50:57;;;;;;;;;6.25;6.25;;;;;;;;5049635;28;8853;-83
2024/02/10 14:53:31;;;;;;;;;8.75;7.00;;;;;;;;5049087;28;8846;-82
2024/02/10 14:56:01;;;;;;;;;4.50;4.50;;;;;;;;5049743;28;8980;-88
2024/02/10 14:58:29;;;;;;;;;7.00;7.00;;;;;;;;5051250;28;8850;-76
2024/02/10 15:00:57;;;;;;;;;5.50;5.50;;;;;;;;5052529;28;8789;-83
2024/02/10 15:03:25;;;;;;;;;5.50;5.50;;;;;;;;5052036;28;8961;-84
2024/02/10 15:05:53;;;;;;;;;6.00;6.00;;;;;;;;5053838;28;8964;-84
2024/02/10 15:08:22;;;;;;;;;6.75;5.75;;;;;;;;5053708;28;8881;-86
2024/02/10 15:10:51;;;;;;;;;6.75;6.75;;;;;;;;5052948;28;8849;-81
2024/02/10 15:13:19;;;;;;;;;6.50;6.50;;;;;;;;5052095;28;8857;-85
2024/02/10 15:15:46;;;;;;;;;6.00;6.00;;;;;;;;5049289;28;9672;-84
2024/02/10 15:18:14;;;;;;;;;5.00;5.00;;;;;;;;5048802;28;8854;-78
2024/02/10 15:20:42;;;;;;;;;5.75;4.25;;;;;;;;5048997;28;8972;-80
2024/02/10 15:23:10;;;;;;;;;5.75;5.75;;;;;;;;5048244;28;8983;-76
2024/02/10 15:25:40;;;;;;;;;6.00;6.00;;;;;;;;5048059;28;8885;-79
2024/02/10 15:28:14;;;;;;;;;6.00;6.00;;;;;;;;5047612;28;8929;-79
2024/02/10 15:30:43;;;;;;;;;7.00;7.00;;;;;;;;5047395;28;8933;-78
2024/02/10 15:33:13;;;;;;;;;7.00;7.00;;;;;;;;5047687;28;9004;-74
2024/02/10 15:35:42;;;;;;;;;7.75;7.75;;;;;;;;5047941;28;8868;-81
2024/02/10 15:38:12;;;;;;;;;7.75;7.75;;;;;;;;5048540;28;9004;-80
2024/02/10 15:40:48;;;;;;;;;9.50;8.75;;;;;;;;5048824;28;8865;-80
2024/02/10 15:43:15;;;;;;;;;6.50;6.50;;;;;;;;5048841;28;8853;-79
2024/02/10 15:45:44;;;;;;;;;6.25;6.25;;;;;;;;5049653;28;8899;-84
2024/02/10 15:48:14;;;;;;;;;7.00;7.00;;;;;;;;5049685;28;8843;-85
2024/02/10 15:50:43;;;;;;;;;5.00;5.00;;;;;;;;5049238;28;8880;-78
2024/02/10 15:53:11;;;;;;;;;6.00;6.00;;;;;;;;5047759;28;8883;-77
2024/02/10 15:55:38;;;;;;;;;7.00;7.00;;;;;;;;5048219;28;8887;-75